createdAt,value
2023-05-31T00:01:54.795Z,74.82
2023-05-31T00:04:21.937Z,75.00
2023-05-31T00:06:49.062Z,74.56
2023-05-31T00:09:16.214Z,74.59
2023-05-31T00:11:43.495Z,74.48
2023-05-31T00:14:11.402Z,74.60
2023-05-31T00:16:56.280Z,74.92
2023-05-31T00:19:25.830Z,75.08
2023-05-31T00:21:53.177Z,75.18
2023-05-31T00:24:20.292Z,75.13
2023-05-31T00:26:47.463Z,74.62
2023-05-31T00:29:14.595Z,74.92
2023-05-31T00:31:42.505Z,74.95
2023-05-31T00:34:11.529Z,74.88
2023-05-31T00:36:38.730Z,75.05
2023-05-31T00:39:05.893Z,74.89
2023-05-31T00:41:33.014Z,74.91
2023-05-31T00:44:00.214Z,74.96
2023-05-31T00:46:29.168Z,74.82
2023-05-31T00:48:57.127Z,75.17
2023-05-31T00:51:26.433Z,74.94
2023-05-31T00:53:53.744Z,75.19
2023-05-31T00:56:22.988Z,75.46
2023-05-31T00:58:51.907Z,75.27
2023-05-31T01:01:19.397Z,75.15
2023-05-31T01:03:46.841Z,75.40
2023-05-31T01:06:14.035Z,75.33
2023-05-31T01:08:41.463Z,75.58
2023-05-31T01:11:22.604Z,75.31
2023-05-31T01:13:58.798Z,75.83
2023-05-31T01:16:33.964Z,76.52
2023-05-31T01:19:06.560Z,77.49
2023-05-31T01:22:02.607Z,77.53
2023-05-31T01:24:46.248Z,77.47
2023-05-31T01:27:17.336Z,77.20
2023-05-31T01:29:46.202Z,76.05
2023-05-31T01:32:15.358Z,75.42
2023-05-31T01:34:46.538Z,76.36
2023-05-31T01:37:13.917Z,77.13
2023-05-31T01:39:41.243Z,77.38
2023-05-31T01:42:10.765Z,77.51
2023-05-31T01:44:41.718Z,77.69
2023-05-31T01:47:10.355Z,77.74
2023-05-31T01:49:38.841Z,77.92
2023-05-31T01:52:14.039Z,77.62
2023-05-31T01:54:41.248Z,77.53
2023-05-31T01:57:09.038Z,76.13
2023-05-31T01:59:36.902Z,76.10
2023-05-31T02:02:05.302Z,76.63
2023-05-31T02:04:32.524Z,77.21
2023-05-31T02:07:01.461Z,78.46
2023-05-31T02:09:28.844Z,77.53
2023-05-31T02:11:55.922Z,76.30
2023-05-31T02:14:23.035Z,76.82
2023-05-31T02:16:50.149Z,77.60
2023-05-31T02:19:17.307Z,78.23
2023-05-31T02:21:44.458Z,78.48
2023-05-31T02:24:11.713Z,78.34
2023-05-31T02:26:38.775Z,78.19
2023-05-31T02:29:05.941Z,78.06
2023-05-31T02:31:33.144Z,76.53
2023-05-31T02:34:00.447Z,76.00
2023-05-31T02:36:29.989Z,76.46
2023-05-31T02:38:57.269Z,77.24
2023-05-31T02:41:24.409Z,77.68
2023-05-31T02:43:51.464Z,77.60
2023-05-31T02:46:18.665Z,77.76
2023-05-31T02:48:45.846Z,78.01
2023-05-31T02:51:12.921Z,77.52
2023-05-31T02:53:40.053Z,76.08
2023-05-31T02:56:07.220Z,75.44
2023-05-31T02:58:34.373Z,75.34
2023-05-31T03:01:01.708Z,75.16
2023-05-31T03:03:29.485Z,74.82
2023-05-31T03:05:56.803Z,74.61
2023-05-31T03:08:23.900Z,75.42
2023-05-31T03:10:51.101Z,76.20
2023-05-31T03:13:18.251Z,77.21
2023-05-31T03:15:45.970Z,77.97
2023-05-31T03:18:13.064Z,78.06
2023-05-31T03:20:40.538Z,76.79
2023-05-31T03:23:08.448Z,75.97
2023-05-31T03:25:35.677Z,76.38
2023-05-31T03:28:04.633Z,77.48
2023-05-31T03:30:31.774Z,77.45
2023-05-31T03:32:58.982Z,77.66
2023-05-31T03:35:26.196Z,77.96
2023-05-31T03:37:54.867Z,78.75
2023-05-31T03:40:22.144Z,77.75
2023-05-31T03:42:49.312Z,76.47
2023-05-31T03:45:16.571Z,76.44
2023-05-31T03:47:43.736Z,76.44
2023-05-31T03:50:11.848Z,76.10
2023-05-31T03:52:39.779Z,75.96
2023-05-31T03:55:07.147Z,76.13
2023-05-31T03:57:34.350Z,75.56
2023-05-31T04:00:01.488Z,75.69
2023-05-31T04:02:29.502Z,75.38
2023-05-31T04:04:56.801Z,75.56
2023-05-31T04:07:24.108Z,75.54
2023-05-31T04:09:51.329Z,75.63
2023-05-31T04:12:18.432Z,75.28
2023-05-31T04:14:45.643Z,75.01
2023-05-31T04:17:12.814Z,75.04
2023-05-31T04:19:40.032Z,75.09
2023-05-31T04:22:07.873Z,75.39
2023-05-31T04:24:35.024Z,75.36
2023-05-31T04:27:04.209Z,75.41
2023-05-31T04:29:31.362Z,75.37
2023-05-31T04:31:58.564Z,75.11
2023-05-31T04:34:27.803Z,75.20
2023-05-31T04:36:54.973Z,75.64
2023-05-31T04:39:23.730Z,75.67
2023-05-31T04:41:51.005Z,75.70
2023-05-31T04:44:20.262Z,76.12
2023-05-31T04:46:47.840Z,76.04
2023-05-31T04:49:14.935Z,76.06
2023-05-31T04:51:42.347Z,77.33
2023-05-31T04:54:09.570Z,78.24
2023-05-31T04:56:36.744Z,78.24
2023-05-31T04:59:03.920Z,77.96
2023-05-31T05:01:31.193Z,77.17
2023-05-31T05:03:58.412Z,76.61
2023-05-31T05:06:25.771Z,76.61
2023-05-31T05:08:53.025Z,76.76
2023-05-31T05:11:20.347Z,76.70
2023-05-31T05:13:47.590Z,77.12
2023-05-31T05:16:15.218Z,77.14
2023-05-31T05:18:42.449Z,76.97
2023-05-31T05:21:09.620Z,76.98
2023-05-31T05:23:38.547Z,77.06
2023-05-31T05:26:06.583Z,77.26
2023-05-31T05:28:33.667Z,77.24
2023-05-31T05:31:01.369Z,77.35
2023-05-31T05:33:30.062Z,77.22
2023-05-31T05:35:57.396Z,77.11
2023-05-31T05:38:24.497Z,76.82
2023-05-31T05:40:51.674Z,76.80
2023-05-31T05:43:18.730Z,76.99
2023-05-31T05:45:45.918Z,77.24
2023-05-31T05:48:13.218Z,77.46
2023-05-31T05:50:40.335Z,77.33
2023-05-31T05:53:07.489Z,77.25
2023-05-31T05:55:35.187Z,76.94
2023-05-31T05:58:02.310Z,77.31
2023-05-31T06:00:29.715Z,77.52
2023-05-31T06:02:57.014Z,77.63
2023-05-31T06:05:26.946Z,77.48
2023-05-31T06:07:55.233Z,77.31
2023-05-31T06:10:22.541Z,77.45
2023-05-31T06:12:49.815Z,77.65
2023-05-31T06:15:16.892Z,77.53
2023-05-31T06:17:44.806Z,77.38
2023-05-31T06:20:12.309Z,77.15
2023-05-31T06:22:39.602Z,77.40
2023-05-31T06:25:07.071Z,76.98
2023-05-31T06:27:34.248Z,76.52
2023-05-31T06:30:02.152Z,76.25
2023-05-31T06:32:30.414Z,75.99
2023-05-31T06:34:57.947Z,75.98
2023-05-31T06:37:25.098Z,75.72
2023-05-31T06:39:52.244Z,75.08
2023-05-31T06:42:19.907Z,75.02
2023-05-31T06:44:56.247Z,74.78
2023-05-31T06:47:24.873Z,74.48
2023-05-31T06:49:52.025Z,73.77
2023-05-31T06:52:19.235Z,73.50
2023-05-31T06:54:46.640Z,73.45
2023-05-31T06:57:13.756Z,73.23
2023-05-31T06:59:41.090Z,72.91
2023-05-31T07:02:08.466Z,72.56
2023-05-31T07:04:35.720Z,72.26
2023-05-31T07:07:03.624Z,71.91
2023-05-31T07:09:30.908Z,71.65
2023-05-31T07:11:58.268Z,71.83
2023-05-31T07:14:25.549Z,71.49
2023-05-31T07:16:52.677Z,71.05
2023-05-31T07:19:19.780Z,70.25
2023-05-31T07:21:46.880Z,70.01
2023-05-31T07:24:13.970Z,69.94
2023-05-31T07:26:41.412Z,69.22
2023-05-31T07:29:08.531Z,68.86
2023-05-31T07:31:35.656Z,68.20
2023-05-31T07:34:02.866Z,67.79
2023-05-31T07:36:30.061Z,67.75
2023-05-31T07:38:57.269Z,67.58
2023-05-31T07:41:24.361Z,67.28
2023-05-31T07:43:52.726Z,67.37
2023-05-31T07:46:19.864Z,67.12
2023-05-31T07:48:47.017Z,67.01
2023-05-31T07:51:14.199Z,66.85
2023-05-31T07:53:42.114Z,66.86
2023-05-31T07:56:09.568Z,66.79
2023-05-31T07:58:36.780Z,66.66
2023-05-31T08:01:04.416Z,66.61
2023-05-31T08:03:32.610Z,66.70
2023-05-31T08:05:59.925Z,66.68
2023-05-31T08:08:27.272Z,66.74
2023-05-31T08:10:54.474Z,66.32
2023-05-31T08:13:21.614Z,64.98
2023-05-31T08:15:48.699Z,64.86
2023-05-31T08:18:16.007Z,64.76
2023-05-31T08:20:43.135Z,65.58
2023-05-31T08:23:10.408Z,65.55
2023-05-31T08:25:41.678Z,65.13
2023-05-31T08:28:08.775Z,65.50
2023-05-31T08:30:35.998Z,65.75
2023-05-31T08:33:03.455Z,65.45
2023-05-31T08:35:30.611Z,64.91
2023-05-31T08:37:57.728Z,64.20
2023-05-31T08:40:25.490Z,63.73
2023-05-31T08:43:00.934Z,63.00
2023-05-31T08:45:29.961Z,62.59
2023-05-31T08:48:11.064Z,62.20
2023-05-31T08:50:39.385Z,61.71
2023-05-31T08:53:07.196Z,61.46
2023-05-31T08:55:34.451Z,61.24
2023-05-31T08:58:03.629Z,61.05
2023-05-31T09:00:31.508Z,60.04
2023-05-31T09:03:00.910Z,59.05
2023-05-31T09:05:28.190Z,58.96
2023-05-31T09:07:57.373Z,58.62
2023-05-31T09:10:24.479Z,58.47
2023-05-31T09:12:51.650Z,58.26
2023-05-31T09:15:23.072Z,57.83
2023-05-31T09:17:50.183Z,57.54
2023-05-31T09:20:19.226Z,57.51
2023-05-31T09:22:52.585Z,57.08
2023-05-31T09:25:19.704Z,56.55
2023-05-31T09:27:46.860Z,56.66
2023-05-31T09:30:16.104Z,55.94
2023-05-31T09:32:54.826Z,55.58
2023-05-31T09:35:25.909Z,55.70
2023-05-31T09:37:54.706Z,55.67
2023-05-31T09:40:26.852Z,55.37
2023-05-31T09:42:55.520Z,54.66
2023-05-31T09:45:23.533Z,54.52
2023-05-31T09:47:51.391Z,53.94
2023-05-31T09:50:20.748Z,53.12
2023-05-31T09:52:50.520Z,53.39
2023-05-31T09:55:18.265Z,53.35
2023-05-31T09:57:46.523Z,53.03
2023-05-31T10:00:19.261Z,53.10
2023-05-31T10:02:51.521Z,53.36
2023-05-31T10:05:19.948Z,53.11
2023-05-31T10:07:49.884Z,52.54
2023-05-31T10:10:21.408Z,52.22
2023-05-31T10:12:51.965Z,52.46
2023-05-31T10:15:28.617Z,52.69
2023-05-31T10:18:03.438Z,52.53
2023-05-31T10:20:36.166Z,52.74
2023-05-31T10:23:09.002Z,52.54
2023-05-31T10:25:57.921Z,53.14
2023-05-31T10:28:29.136Z,53.13
2023-05-31T10:30:58.280Z,52.82
2023-05-31T10:33:31.801Z,52.98
2023-05-31T10:36:00.458Z,53.13
2023-05-31T10:38:41.521Z,53.15
2023-05-31T10:41:22.573Z,53.08
2023-05-31T10:44:06.660Z,52.91
2023-05-31T10:46:36.517Z,53.26
2023-05-31T10:49:06.707Z,53.41
2023-05-31T10:51:41.202Z,53.21
2023-05-31T10:54:08.649Z,53.34
2023-05-31T10:56:41.850Z,54.15
2023-05-31T10:59:18.650Z,54.73
2023-05-31T11:01:46.142Z,54.88
2023-05-31T11:04:25.861Z,55.25
2023-05-31T11:06:55.519Z,56.98
2023-05-31T11:09:23.222Z,57.03
2023-05-31T11:11:51.123Z,58.20
2023-05-31T11:14:30.368Z,58.52
2023-05-31T11:17:07.677Z,58.31
2023-05-31T11:19:38.086Z,58.99
2023-05-31T11:22:10.624Z,58.32
2023-05-31T11:24:39.019Z,58.41
2023-05-31T11:27:11.623Z,58.38
2023-05-31T11:29:53.669Z,57.15
2023-05-31T11:32:22.350Z,56.87
2023-05-31T11:34:52.385Z,56.38
2023-05-31T11:37:19.971Z,55.92
2023-05-31T11:39:47.847Z,54.92
2023-05-31T11:42:15.958Z,55.01
2023-05-31T11:44:47.397Z,54.17
2023-05-31T11:47:19.900Z,53.92
2023-05-31T11:49:47.797Z,53.93
2023-05-31T11:52:19.406Z,53.63
2023-05-31T11:54:49.398Z,53.59
2023-05-31T11:57:21.895Z,53.55
2023-05-31T11:59:49.190Z,53.20
2023-05-31T12:02:16.250Z,52.48
2023-05-31T12:04:44.290Z,51.50
2023-05-31T12:07:13.680Z,51.57
2023-05-31T12:09:40.939Z,51.96
2023-05-31T12:12:08.468Z,52.17
2023-05-31T12:14:36.667Z,51.91
2023-05-31T12:19:39.125Z,50.90
2023-05-31T12:22:06.542Z,51.19
2023-05-31T12:24:33.666Z,50.71
2023-05-31T12:27:00.819Z,50.14
2023-05-31T12:29:32.309Z,49.50
2023-05-31T12:32:07.020Z,49.02
2023-05-31T12:34:36.752Z,49.01
2023-05-31T12:37:11.208Z,48.84
2023-05-31T12:39:39.089Z,48.56
2023-05-31T12:42:07.247Z,48.03
2023-05-31T12:44:37.554Z,47.50
2023-05-31T12:47:08.684Z,48.08
2023-05-31T12:49:38.370Z,48.18
2023-05-31T12:52:07.757Z,47.41
2023-05-31T12:54:39.042Z,46.81
2023-05-31T12:57:10.473Z,46.65
2023-05-31T12:59:38.983Z,47.06
2023-05-31T13:02:07.026Z,46.80
2023-05-31T13:04:34.488Z,46.75
2023-05-31T13:07:03.165Z,46.63
2023-05-31T13:09:30.377Z,47.04
2023-05-31T13:11:57.455Z,46.37
2023-05-31T13:14:26.153Z,46.08
2023-05-31T13:16:54.758Z,46.04
2023-05-31T13:19:22.039Z,45.67
2023-05-31T13:21:49.120Z,45.51
2023-05-31T13:24:16.373Z,45.65
2023-05-31T13:26:43.525Z,45.92
2023-05-31T13:29:10.838Z,45.63
2023-05-31T13:31:38.104Z,45.57
2023-05-31T13:34:05.514Z,45.26
2023-05-31T13:36:34.414Z,44.83
2023-05-31T13:39:19.754Z,44.35
2023-05-31T13:42:08.080Z,44.46
2023-05-31T13:44:55.171Z,44.90
2023-05-31T13:47:22.495Z,44.60
2023-05-31T13:49:49.814Z,44.78
2023-05-31T13:52:17.401Z,44.50
2023-05-31T13:54:44.591Z,43.51
2023-05-31T13:57:31.751Z,43.50
2023-05-31T14:00:20.509Z,42.85
2023-05-31T14:02:48.606Z,43.13
2023-05-31T14:05:15.897Z,42.97
2023-05-31T14:07:43.114Z,42.83
2023-05-31T14:10:10.862Z,42.67
2023-05-31T14:12:38.305Z,42.50
2023-05-31T14:15:06.063Z,43.02
2023-05-31T14:17:33.220Z,42.94
2023-05-31T14:20:07.521Z,43.64
2023-05-31T14:22:34.753Z,43.55
2023-05-31T14:25:01.926Z,43.29
2023-05-31T14:27:29.167Z,43.51
2023-05-31T14:29:56.327Z,42.79
2023-05-31T14:32:23.823Z,42.50
2023-05-31T14:34:51.465Z,41.95
2023-05-31T14:37:27.774Z,41.43
2023-05-31T14:40:03.949Z,41.67
2023-05-31T14:42:31.656Z,41.95
2023-05-31T14:44:58.960Z,41.76
2023-05-31T14:47:26.068Z,41.69
2023-05-31T14:49:53.326Z,41.79
2023-05-31T14:52:21.266Z,41.55
2023-05-31T14:57:15.662Z,41.18
2023-05-31T14:59:42.872Z,41.01
2023-05-31T15:02:10.370Z,40.58
2023-05-31T15:04:37.474Z,41.00
2023-05-31T15:07:04.836Z,40.79
2023-05-31T15:09:31.947Z,39.87
2023-05-31T15:11:59.183Z,39.92
2023-05-31T15:14:26.254Z,40.44
2023-05-31T15:16:53.485Z,39.95
2023-05-31T15:19:20.736Z,39.74
2023-05-31T15:21:47.909Z,39.86
2023-05-31T15:24:15.121Z,40.74
2023-05-31T15:27:00.155Z,41.19
2023-05-31T15:29:27.530Z,41.51
2023-05-31T15:31:57.641Z,42.59
2023-05-31T15:34:45.007Z,42.71
2023-05-31T15:37:12.180Z,42.40
2023-05-31T15:39:39.573Z,42.65
2023-05-31T15:42:07.548Z,42.19
2023-05-31T15:44:53.216Z,42.23
2023-05-31T15:47:40.490Z,41.84
2023-05-31T15:50:07.874Z,42.09
2023-05-31T15:52:44.016Z,42.25
2023-05-31T15:55:13.979Z,42.70
2023-05-31T15:57:41.397Z,43.37
2023-05-31T16:00:09.449Z,41.53
2023-05-31T16:02:36.613Z,41.97
2023-05-31T16:05:04.475Z,43.07
2023-05-31T16:07:31.610Z,42.87
2023-05-31T16:09:58.788Z,43.19
2023-05-31T16:12:25.974Z,43.72
2023-05-31T16:14:53.532Z,42.49
2023-05-31T16:17:20.730Z,42.06
2023-05-31T16:19:47.821Z,42.96
2023-05-31T16:22:20.684Z,42.88
2023-05-31T16:24:47.866Z,42.96
2023-05-31T16:27:15.545Z,43.30
2023-05-31T16:29:42.835Z,43.40
2023-05-31T16:32:10.257Z,43.94
2023-05-31T16:34:37.346Z,44.53
2023-05-31T16:37:06.038Z,45.31
2023-05-31T16:39:33.812Z,45.55
2023-05-31T16:42:01.269Z,45.87
2023-05-31T16:44:28.386Z,46.08
2023-05-31T16:46:56.830Z,46.09
2023-05-31T16:49:23.954Z,46.08
2023-05-31T16:51:51.866Z,45.74
2023-05-31T16:54:19.005Z,46.31
2023-05-31T16:56:46.132Z,46.39
2023-05-31T16:59:13.216Z,46.49
2023-05-31T17:01:40.498Z,46.90
2023-05-31T17:04:07.666Z,47.28
2023-05-31T17:06:34.882Z,47.38
2023-05-31T17:09:02.062Z,46.78
2023-05-31T17:11:29.650Z,47.48
2023-05-31T17:13:56.954Z,48.30
2023-05-31T17:16:24.333Z,48.80
2023-05-31T17:18:53.287Z,49.35
2023-05-31T17:21:20.538Z,49.74
2023-05-31T17:23:47.752Z,50.44
2023-05-31T17:26:17.094Z,51.25
2023-05-31T17:28:44.849Z,52.05
2023-05-31T17:31:12.012Z,52.26
2023-05-31T17:33:39.243Z,53.03
2023-05-31T17:36:08.104Z,53.59
2023-05-31T17:38:35.194Z,53.67
2023-05-31T17:41:02.381Z,54.33
2023-05-31T17:43:29.689Z,55.17
2023-05-31T17:45:58.879Z,55.33
2023-05-31T17:48:28.025Z,55.86
2023-05-31T17:50:55.549Z,56.24
2023-05-31T17:53:23.182Z,56.30
2023-05-31T17:55:50.389Z,56.28
2023-05-31T17:58:17.546Z,56.66
2023-05-31T18:00:44.886Z,56.72
2023-05-31T18:03:12.199Z,57.28
2023-05-31T18:05:39.472Z,57.01
2023-05-31T18:08:06.735Z,57.38
2023-05-31T18:10:33.876Z,56.89
2023-05-31T18:13:01.049Z,56.95
2023-05-31T18:15:28.274Z,56.86
2023-05-31T18:17:55.419Z,57.04
2023-05-31T18:20:22.542Z,56.57
2023-05-31T18:22:49.684Z,56.76
2023-05-31T18:25:16.904Z,56.78
2023-05-31T18:27:44.427Z,56.84
2023-05-31T18:30:13.059Z,57.09
2023-05-31T18:32:40.727Z,57.55
2023-05-31T18:35:08.252Z,57.95
2023-05-31T18:37:35.459Z,58.14
2023-05-31T18:40:02.694Z,58.64
2023-05-31T18:42:29.916Z,58.67
2023-05-31T18:44:57.164Z,59.06
2023-05-31T18:47:25.521Z,59.17
2023-05-31T18:49:54.202Z,59.59
2023-05-31T18:52:21.462Z,59.42
2023-05-31T18:54:48.638Z,59.37
2023-05-31T18:57:15.792Z,59.75
2023-05-31T18:59:43.623Z,60.17
2023-05-31T19:02:11.548Z,60.50
2023-05-31T19:04:38.697Z,60.36
2023-05-31T19:07:07.079Z,60.48
2023-05-31T19:09:34.231Z,60.63
2023-05-31T19:12:01.891Z,60.83
2023-05-31T19:14:29.070Z,61.06
2023-05-31T19:16:56.229Z,61.30
2023-05-31T19:19:23.421Z,61.69
2023-05-31T19:21:50.577Z,61.70
2023-05-31T19:24:17.773Z,61.44
2023-05-31T19:26:44.971Z,61.61
2023-05-31T19:29:12.377Z,61.81
2023-05-31T19:31:39.614Z,62.01
2023-05-31T19:34:07.025Z,62.24
2023-05-31T19:36:34.272Z,62.23
2023-05-31T19:39:04.541Z,62.05
2023-05-31T19:41:31.719Z,62.19
2023-05-31T19:43:58.899Z,62.12
2023-05-31T19:46:26.320Z,62.00
2023-05-31T19:48:53.680Z,62.05
2023-05-31T19:51:21.303Z,62.22
2023-05-31T19:53:48.460Z,62.42
2023-05-31T19:56:16.214Z,62.70
2023-05-31T19:58:43.510Z,62.65
2023-05-31T20:01:11.396Z,62.83
2023-05-31T20:03:38.967Z,63.22
2023-05-31T20:06:06.465Z,63.68
2023-05-31T20:08:34.306Z,63.77
2023-05-31T20:11:01.582Z,64.10
2023-05-31T20:13:29.072Z,63.96
2023-05-31T20:15:56.354Z,63.76
2023-05-31T20:18:24.116Z,64.14
2023-05-31T20:20:52.137Z,63.74
2023-05-31T20:23:19.525Z,64.25
2023-05-31T20:25:46.821Z,64.81
2023-05-31T20:28:14.108Z,64.75
2023-05-31T20:30:41.288Z,64.58
2023-05-31T20:33:08.530Z,64.17
2023-05-31T20:35:35.869Z,64.29
2023-05-31T20:38:02.978Z,64.04
2023-05-31T20:40:30.135Z,64.51
2023-05-31T20:42:57.220Z,64.36
2023-05-31T20:45:24.448Z,64.12
2023-05-31T20:47:51.681Z,64.68
2023-05-31T20:50:20.620Z,64.18
2023-05-31T20:52:51.526Z,64.26
2023-05-31T20:55:18.830Z,64.54
2023-05-31T20:57:46.553Z,64.61
2023-05-31T21:00:32.556Z,64.93
2023-05-31T21:03:19.696Z,64.50
2023-05-31T21:06:07.063Z,64.78
2023-05-31T21:11:35.301Z,65.32
2023-05-31T21:14:22.472Z,65.10
2023-05-31T21:17:09.567Z,65.13
2023-05-31T21:19:36.732Z,64.93
2023-05-31T21:22:04.091Z,65.18
2023-05-31T21:24:31.364Z,65.00
2023-05-31T21:26:58.669Z,65.22
2023-05-31T21:29:26.119Z,65.34
2023-05-31T21:31:53.332Z,65.28
2023-05-31T21:34:21.863Z,65.20
2023-05-31T21:36:49.132Z,64.92
2023-05-31T21:39:16.488Z,65.03
2023-05-31T21:41:43.835Z,65.23
2023-05-31T21:44:11.087Z,65.24
2023-05-31T21:46:38.223Z,65.38
2023-05-31T21:49:05.693Z,65.47
2023-05-31T21:53:20.893Z,65.23
2023-05-31T21:55:48.162Z,65.46
2023-05-31T21:58:15.549Z,65.64
2023-05-31T22:00:42.769Z,65.59
2023-05-31T22:03:09.969Z,65.53
2023-05-31T22:05:37.184Z,65.35
2023-05-31T22:08:04.391Z,65.57
2023-05-31T22:10:31.680Z,65.32
2023-05-31T22:12:58.817Z,65.21
2023-05-31T22:15:27.217Z,65.18
2023-05-31T22:17:55.852Z,65.49
2023-05-31T22:20:23.066Z,65.83
2023-05-31T22:22:51.117Z,66.08
2023-05-31T22:25:18.301Z,66.22
2023-05-31T22:27:45.516Z,66.85
2023-05-31T22:30:13.431Z,66.73
2023-05-31T22:32:40.710Z,66.43
2023-05-31T22:35:09.067Z,66.61
2023-05-31T22:37:36.631Z,66.49
2023-05-31T22:40:04.940Z,66.57
2023-05-31T22:42:32.165Z,66.64
2023-05-31T22:44:59.584Z,66.60
2023-05-31T22:47:26.750Z,66.78
2023-05-31T22:49:54.113Z,66.81
2023-05-31T22:52:21.562Z,67.07
2023-05-31T22:54:48.713Z,66.98
2023-05-31T22:57:16.201Z,66.94
2023-05-31T22:59:43.288Z,66.80
2023-05-31T23:02:10.941Z,66.06
2023-05-31T23:04:38.209Z,66.31
2023-05-31T23:07:05.444Z,66.07
2023-05-31T23:09:33.104Z,66.66
2023-05-31T23:12:01.973Z,66.10
2023-05-31T23:14:30.516Z,66.03
2023-05-31T23:17:00.045Z,65.57
2023-05-31T23:19:27.299Z,65.36
2023-05-31T23:21:54.931Z,65.10
2023-05-31T23:24:22.139Z,65.24
2023-05-31T23:26:49.549Z,65.53
2023-05-31T23:29:16.686Z,65.15
2023-05-31T23:31:43.959Z,65.40
2023-05-31T23:34:11.257Z,65.33
2023-05-31T23:36:38.457Z,65.71
2023-05-31T23:39:05.960Z,65.51
2023-05-31T23:41:33.750Z,65.78
2023-05-31T23:44:00.940Z,65.92
2023-05-31T23:46:28.357Z,65.74
2023-05-31T23:48:56.112Z,65.83
2023-05-31T23:51:23.244Z,65.78
2023-05-31T23:53:50.442Z,65.66
2023-05-31T23:56:17.888Z,65.62
2023-05-31T23:58:45.489Z,65.94
